MAPA DE AEROPUERTO

INFORMACIÓN METAR y TAF

METAR FOR BGSF
ADDS - METARS form results

(1124 UTC 01 December 2020)
Data provider http://aviationweather.gov/metar/data/
 
METAR text: BGSF 011050Z AUTO 05006KT 9999NDV NCD M15/M17 Q1015
Conditions at: BGSF (SONDRE STROMFJOR, GL) observed 1050 UTC 01 December 2020
Temperature: -15.0°C ( 5°F)
Dewpoint: -17.0°C ( 1°F) [RH = 85%]
Pressure (altimeter): 29.97 inches Hg (1015.0 mb)
Winds: from the NE (50 degrees) at 7 MPH (6 knots; 3.1 m/s)
Visibility: missing
Ceiling: at least 12,000 feet AGL
Clouds: sky clear below 12,000 feet AGL
Weather: no significant weather observed at this time

Forecast for: BGSF (SONDRE STROMFJOR, GL)
Text: TAF BGSF 011051Z 0112/0123 05008KT 9999 FEW025 BKN090
Forecast period: 1200 to 2300 UTC 01 December 2020
Forecast type: FROM: standard forecast or significant change
Winds: from the NE (50 degrees) at 9 MPH (8 knots; 4.1 m/s)
Visibility: 6 or more miles (10+ km)
Ceiling: 9000 feet AGL
Clouds: few clouds at 2500 feet AGL
broken clouds at 9000 feet AGL
Weather: no significant weather forecast for this period
Text: TEMPO 0112/0123 4000 -SN BKN025
Forecast period: 1200 to 2300 UTC 01 December 2020
Forecast type: TEMPORARY: The following changes expected for less than half the time period
Visibility: 2.49 miles (4.01 km)
Ceiling: 2500 feet AGL
Clouds: broken clouds at 2500 feet AGL
Weather: -SN  (light snow)